Time;durP1;ratioP1;P1;durP2;ratioP2;P2;SDS_P1;SDS_P2;PMS_P1;PMS_P2;Temp;Humidity;BMP_temperature;BMP_pressure;BME280_temperature;BME280_humidity;BME280_pressure;Samples;Min_cycle;Max_cycle;Signal;HPM_P1;HPM_P2
2021/12/19 00:01:15;;;;;;;0.50;0.50;;;;;;;-143.85;100.00;70650.75;5116125;27;20110;-82
2021/12/19 00:04:16;;;;;;;0.40;0.40;;;;;;;-143.85;100.00;70650.75;5134562;27;20110;-82
2021/12/19 00:09:29;;;;;;;0.28;0.28;;;;;;;-143.85;100.00;70650.75;5134509;27;20134;-82
2021/12/19 00:11:57;;;;;;;0.38;0.38;;;;;;;-143.85;100.00;70650.75;5115644;27;20060;-82
2021/12/19 00:14:23;;;;;;;0.30;0.30;;;;;;;-143.85;100.00;70650.75;5115855;27;20023;-85
2021/12/19 00:16:50;;;;;;;0.20;0.20;;;;;;;-143.85;100.00;70650.75;5115824;27;20027;-83
2021/12/19 00:19:16;;;;;;;0.50;0.50;;;;;;;-143.85;100.00;70650.75;5115708;27;20030;-81
2021/12/19 00:21:44;;;;;;;0.30;0.30;;;;;;;-143.85;100.00;70650.75;5116019;27;20042;-83
2021/12/19 00:24:10;;;;;;;0.38;0.38;;;;;;;-143.85;100.00;70650.75;5115885;27;20080;-82
2021/12/19 00:26:35;;;;;;;0.65;0.65;;;;;;;-143.85;100.00;70650.75;5115824;27;20448;-81
2021/12/19 00:29:03;;;;;;;0.43;0.43;;;;;;;-143.85;100.00;70650.75;5115723;27;20038;-83
2021/12/19 00:31:29;;;;;;;0.30;0.30;;;;;;;-143.85;100.00;70650.75;5115554;27;20502;-83
2021/12/19 00:33:55;;;;;;;0.20;0.20;;;;;;;-143.85;100.00;70650.75;5115994;27;20045;-83
2021/12/19 00:36:20;;;;;;;0.30;0.30;;;;;;;-143.85;100.00;70650.75;5115609;27;20114;-83
2021/12/19 00:38:46;;;;;;;0.80;0.45;;;;;;;-143.85;100.00;70650.75;5116017;28;20071;-83
2021/12/19 00:41:12;;;;;;;0.25;0.25;;;;;;;-143.85;100.00;70650.75;5115817;27;20031;-86
2021/12/19 00:43:46;;;;;;;0.30;0.30;;;;;;;-143.85;100.00;70650.75;5115070;28;20043;-84
2021/12/19 00:46:15;;;;;;;1.38;1.38;;;;;;;-143.85;100.00;70650.75;5115641;28;20030;-86
2021/12/19 00:48:43;;;;;;;0.35;0.35;;;;;;;-143.85;100.00;70650.75;5098506;28;20038;-83
2021/12/19 00:51:12;;;;;;;0.52;0.52;;;;;;;-143.85;100.00;70650.75;5114877;28;20066;-83
2021/12/19 00:53:38;;;;;;;0.35;0.35;;;;;;;-143.85;100.00;70650.75;5115236;28;20079;-83
2021/12/19 00:56:04;;;;;;;0.43;0.43;;;;;;;-143.85;100.00;70650.75;5115356;28;20055;-84
2021/12/19 00:58:30;;;;;;;0.22;0.22;;;;;;;-143.85;100.00;70650.75;5115699;28;20022;-84
2021/12/19 01:00:56;;;;;;;0.30;0.30;;;;;;;-143.85;100.00;70650.75;5115444;28;20027;-83
2021/12/19 01:03:22;;;;;;;0.55;0.55;;;;;;;-143.85;100.00;70650.75;5115132;28;20031;-84
2021/12/19 01:05:48;;;;;;;0.25;0.25;;;;;;;-143.85;100.00;70650.75;5116047;28;20118;-84
2021/12/19 01:08:14;;;;;;;0.20;0.20;;;;;;;-143.85;100.00;70650.75;5115283;28;20030;-84
2021/12/19 01:10:44;;;;;;;0.30;0.30;;;;;;;-143.85;100.00;70650.75;5133515;28;20031;-83
2021/12/19 01:13:11;;;;;;;0.20;0.20;;;;;;;-143.85;100.00;70650.75;5115191;28;20015;-84
2021/12/19 01:15:37;;;;;;;0.38;0.38;;;;;;;-143.85;100.00;70650.75;5114892;28;20031;-83
2021/12/19 01:18:03;;;;;;;0.50;0.50;;;;;;;-143.85;100.00;70650.75;5114960;28;20031;-84
2021/12/19 01:20:32;;;;;;;1.05;1.05;;;;;;;-143.85;100.00;70650.75;5115172;28;20118;-84
2021/12/19 01:22:57;;;;;;;;;;;;;;;-143.85;100.00;70650.75;5115495;28;20019;-85
2021/12/19 01:25:23;;;;;;;0.30;0.30;;;;;;;-143.85;100.00;70650.75;5114879;28;20340;-81
2021/12/19 01:27:48;;;;;;;0.73;0.73;;;;;;;-143.85;100.00;70650.75;5133269;28;20042;-83
2021/12/19 01:30:15;;;;;;;0.43;0.43;;;;;;;-143.85;100.00;70650.75;5114908;28;20038;-84
2021/12/19 01:32:41;;;;;;;0.50;0.50;;;;;;;-143.85;100.00;70650.75;5115208;28;20058;-82
2021/12/19 01:35:09;;;;;;;0.35;0.35;;;;;;;-143.85;100.00;70650.75;5114704;28;20035;-84
2021/12/19 01:37:34;;;;;;;0.30;0.30;;;;;;;-143.85;100.00;70650.75;5115292;28;20023;-83
2021/12/19 01:40:00;;;;;;;1.85;1.75;;;;;;;-143.85;100.00;70650.75;5114667;28;20425;-82
2021/12/19 01:42:31;;;;;;;0.30;0.30;;;;;;;-143.85;100.00;70650.75;5114702;28;20027;-83
2021/12/19 01:44:57;;;;;;;0.40;0.40;;;;;;;-143.85;100.00;70650.75;5114967;28;20444;-82
2021/12/19 01:47:22;;;;;;;0.30;0.30;;;;;;;-143.85;100.00;70650.75;5114615;28;20027;-84
2021/12/19 01:49:48;;;;;;;0.90;0.90;;;;;;;-143.85;100.00;70650.75;5114704;28;20050;-84
2021/12/19 01:52:13;;;;;;;0.40;0.40;;;;;;;-143.85;100.00;70650.75;5114778;28;20118;-83
2021/12/19 01:54:39;;;;;;;0.30;0.30;;;;;;;-143.85;100.00;70650.75;5114591;28;20030;-83
2021/12/19 01:57:04;;;;;;;0.40;0.40;;;;;;;-143.85;100.00;70650.75;5114553;28;20393;-82
2021/12/19 01:59:30;;;;;;;0.52;0.52;;;;;;;-143.85;100.00;70650.75;5114332;27;20023;-83
2021/12/19 02:01:56;;;;;;;0.75;0.75;;;;;;;-143.85;100.00;70650.75;5114590;28;20020;-83
2021/12/19 02:04:22;;;;;;;0.50;0.50;;;;;;;-143.85;100.00;70650.75;5116384;27;20483;-83
2021/12/19 02:06:49;;;;;;;0.30;0.30;;;;;;;-143.85;100.00;70650.75;5118556;27;20080;-83
2021/12/19 02:09:17;;;;;;;0.20;0.20;;;;;;;-143.85;100.00;70650.75;5118065;27;20038;-84
2021/12/19 02:11:43;;;;;;;0.65;0.65;;;;;;;-143.85;100.00;70650.75;5118099;27;20268;-84
2021/12/19 02:14:10;;;;;;;0.63;0.63;;;;;;;-143.85;100.00;70650.75;5118040;27;20023;-83
2021/12/19 02:16:38;;;;;;;0.40;0.40;;;;;;;-143.85;100.00;70650.75;5118108;27;20058;-84
2021/12/19 02:19:06;;;;;;;1.15;1.05;;;;;;;-143.85;100.00;70650.75;5117928;27;20023;-84
2021/12/19 02:21:31;;;;;;;0.77;0.77;;;;;;;-143.85;100.00;70650.75;5118169;27;20038;-84
2021/12/19 02:23:58;;;;;;;0.60;0.60;;;;;;;-143.85;100.00;70650.75;5117689;27;20031;-83
2021/12/19 02:26:24;;;;;;;10.10;6.68;;;;;;;-143.85;100.00;70650.75;5117764;27;20023;-84
2021/12/19 02:28:50;;;;;;;2.15;2.05;;;;;;;-143.85;100.00;70650.75;5118457;27;20042;-84
2021/12/19 02:31:16;;;;;;;2.13;2.03;;;;;;;-143.85;100.00;70650.75;5117937;27;20501;-85
2021/12/19 02:33:53;;;;;;;0.50;0.50;;;;;;;-143.85;100.00;70650.75;5117722;27;20532;-83
2021/12/19 02:36:26;;;;;;;1.05;1.05;;;;;;;-143.85;100.00;70650.75;5118221;27;20027;-85
2021/12/19 02:49:48;;;;;;;0.38;0.38;;;;;;;-143.85;100.00;70650.75;5135656;27;20114;-84
2021/12/19 02:52:17;;;;;;;0.63;0.63;;;;;;;-143.85;100.00;70650.75;5117446;27;20469;-84
2021/12/19 02:54:44;;;;;;;0.75;0.75;;;;;;;-143.85;100.00;70650.75;5117498;27;20482;-84
2021/12/19 02:57:09;;;;;;;0.43;0.43;;;;;;;-143.85;100.00;70650.75;5117538;27;20050;-84
2021/12/19 02:59:35;;;;;;;0.40;0.40;;;;;;;-143.85;100.00;70650.75;5117092;27;20470;-84
2021/12/19 03:02:01;;;;;;;0.70;0.70;;;;;;;-143.85;100.00;70650.75;5117313;27;20164;-84
2021/12/19 03:04:27;;;;;;;1.90;1.83;;;;;;;-143.85;100.00;70650.75;5117420;27;20038;-85
2021/12/19 03:06:52;;;;;;;0.40;0.40;;;;;;;-143.85;100.00;70650.75;5117333;27;20160;-84
2021/12/19 03:09:38;;;;;;;2.00;1.90;;;;;;;-143.85;100.00;70650.75;5117111;27;20034;-84
2021/12/19 03:20:00;;;;;;;0.20;0.20;;;;;;;-143.85;100.00;70650.75;5136011;27;20030;-84
2021/12/19 03:22:26;;;;;;;0.40;0.40;;;;;;;-143.85;100.00;70650.75;5117402;27;20035;-83
2021/12/19 03:24:51;;;;;;;1.65;1.58;;;;;;;-143.85;100.00;70650.75;5116799;27;20482;-84
2021/12/19 03:27:16;;;;;;;0.40;0.40;;;;;;;-143.85;100.00;70650.75;5116817;27;20059;-84
2021/12/19 03:29:42;;;;;;;1.40;1.40;;;;;;;-143.85;100.00;70650.75;5116733;27;20035;-82
2021/12/19 03:32:07;;;;;;;0.50;0.50;;;;;;;-143.85;100.00;70650.75;5116675;27;20394;-84
2021/12/19 03:34:35;;;;;;;0.75;0.75;;;;;;;-143.85;100.00;70650.75;5116546;27;20031;-84
2021/12/19 03:37:00;;;;;;;1.23;1.23;;;;;;;-143.85;100.00;70650.75;5135473;27;20356;-85
2021/12/19 03:39:33;;;;;;;1.05;1.05;;;;;;;-143.85;100.00;70650.75;5116427;27;20087;-84
2021/12/19 03:41:59;;;;;;;0.20;0.20;;;;;;;-143.85;100.00;70650.75;5116444;27;20038;-84
2021/12/19 03:44:24;;;;;;;0.30;0.30;;;;;;;-143.85;100.00;70650.75;5116068;27;20047;-82
2021/12/19 03:46:51;;;;;;;0.20;0.20;;;;;;;-143.85;100.00;70650.75;5116242;27;20063;-85
2021/12/19 03:49:18;;;;;;;0.20;0.20;;;;;;;-143.85;100.00;70650.75;5116198;27;20049;-83
2021/12/19 03:51:44;;;;;;;0.63;0.63;;;;;;;-143.85;100.00;70650.75;5116197;27;20479;-84
2021/12/19 03:54:09;;;;;;;0.30;0.30;;;;;;;-143.85;100.00;70650.75;5115720;27;20129;-84
2021/12/19 03:56:35;;;;;;;0.30;0.30;;;;;;;-143.85;100.00;70650.75;5116397;27;20027;-84
2021/12/19 03:59:01;;;;;;;0.35;0.35;;;;;;;-143.85;100.00;70650.75;5116402;27;20030;-84
2021/12/19 04:01:26;;;;;;;0.57;0.57;;;;;;;-143.85;100.00;70650.75;5116073;27;20520;-83
2021/12/19 04:03:52;;;;;;;0.30;0.30;;;;;;;-143.85;100.00;70650.75;5115853;27;20479;-81
2021/12/19 04:06:17;;;;;;;0.63;0.63;;;;;;;-143.85;100.00;70650.75;5115904;27;20023;-83
2021/12/19 04:08:43;;;;;;;0.30;0.30;;;;;;;-143.85;100.00;70650.75;5115895;27;20031;-84
2021/12/19 04:11:09;;;;;;;0.50;0.50;;;;;;;-143.85;100.00;70650.75;5116084;27;20050;-82
2021/12/19 04:13:35;;;;;;;0.30;0.30;;;;;;;-143.85;100.00;70650.75;5116384;27;20019;-84
2021/12/19 04:16:00;;;;;;;0.30;0.30;;;;;;;-143.85;100.00;70650.75;5116136;27;20015;-84
2021/12/19 04:18:26;;;;;;;0.30;0.30;;;;;;;-143.85;100.00;70650.75;5115661;27;20160;-84
2021/12/19 04:20:51;;;;;;;0.75;0.75;;;;;;;-143.85;100.00;70650.75;5115549;27;20027;-84
2021/12/19 04:23:17;;;;;;;0.68;0.68;;;;;;;-143.85;100.00;70650.75;5115780;27;20113;-84
2021/12/19 04:25:43;;;;;;;0.65;0.65;;;;;;;-143.85;100.00;70650.75;5115382;27;20464;-84
2021/12/19 04:28:09;;;;;;;0.40;0.40;;;;;;;-143.85;100.00;70650.75;5115744;27;20535;-83
2021/12/19 04:30:35;;;;;;;0.30;0.30;;;;;;;-143.85;100.00;70650.75;5115815;27;20058;-85
2021/12/19 04:33:03;;;;;;;0.47;0.47;;;;;;;-143.85;100.00;70650.75;5116193;27;20117;-85
2021/12/19 04:35:33;;;;;;;0.40;0.40;;;;;;;-143.85;100.00;70650.75;5116002;28;20479;-84
2021/12/19 04:41:04;;;;;;;0.50;0.50;;;;;;;-143.85;100.00;70650.75;5134686;27;20064;-85
2021/12/19 05:14:36;;;;;;;1.10;1.10;;;;;;;-143.85;100.00;70650.75;5134068;28;20088;-84
2021/12/19 05:17:06;;;;;;;0.43;0.43;;;;;;;-143.85;100.00;70650.75;5115176;28;20031;-83
2021/12/19 05:19:45;;;;;;;0.30;0.30;;;;;;;-143.85;100.00;70650.75;5115645;28;20031;-83
2021/12/19 05:22:11;;;;;;;0.95;0.95;;;;;;;-143.85;100.00;70650.75;5115142;28;20027;-84
2021/12/19 05:27:05;;;;;;;0.43;0.43;;;;;;;-143.85;100.00;70650.75;5134003;28;20024;-84
2021/12/19 05:29:32;;;;;;;0.38;0.38;;;;;;;-143.85;100.00;70650.75;5115547;28;20381;-85
2021/12/19 05:31:58;;;;;;;1.27;1.27;;;;;;;-143.85;100.00;70650.75;5115146;28;20120;-84
2021/12/19 05:34:25;;;;;;;0.32;0.32;;;;;;;-143.85;100.00;70650.75;5114760;28;20118;-84
2021/12/19 05:45:13;;;;;;;2.40;1.10;;;;;;;-143.85;100.00;70650.75;5137366;27;20061;-84
2021/12/19 05:47:40;;;;;;;1.20;1.20;;;;;;;-143.85;100.00;70650.75;5119207;27;20057;-84
2021/12/19 05:50:06;;;;;;;0.35;0.35;;;;;;;-143.85;100.00;70650.75;5118569;27;20031;-84
2021/12/19 05:52:32;;;;;;;0.30;0.30;;;;;;;-143.85;100.00;70650.75;5118514;27;20035;-83
2021/12/19 05:54:58;;;;;;;0.70;0.70;;;;;;;-143.85;100.00;70650.75;5118662;27;20399;-85
2021/12/19 05:57:23;;;;;;;0.30;0.30;;;;;;;-143.85;100.00;70650.75;5118988;27;20463;-83
2021/12/19 05:59:50;;;;;;;2.33;1.75;;;;;;;-143.85;100.00;70650.75;5118444;27;20467;-84
2021/12/19 06:02:17;;;;;;;2.00;1.90;;;;;;;-143.85;100.00;70650.75;5118600;27;20043;-83
2021/12/19 06:04:43;;;;;;;0.65;0.65;;;;;;;-143.85;100.00;70650.75;5118463;27;20411;-83
2021/12/19 06:07:08;;;;;;;0.35;0.35;;;;;;;-143.85;100.00;70650.75;5118321;27;20027;-84
2021/12/19 06:09:34;;;;;;;0.90;0.70;;;;;;;-143.85;100.00;70650.75;5118513;27;20027;-82
2021/12/19 06:11:59;;;;;;;0.43;0.43;;;;;;;-143.85;100.00;70650.75;5118688;27;20493;-85
2021/12/19 06:14:31;;;;;;;0.20;0.20;;;;;;;-143.85;100.00;70650.75;5118931;27;20408;-85
2021/12/19 06:16:56;;;;;;;0.70;0.68;;;;;;;-143.85;100.00;70650.75;5119169;27;20031;-85
2021/12/19 06:19:36;;;;;;;0.30;0.30;;;;;;;-143.85;100.00;70650.75;5118398;27;20514;-84
2021/12/19 06:22:05;;;;;;;1.50;1.40;;;;;;;-143.85;100.00;70650.75;5119206;27;20121;-84
2021/12/19 06:24:32;;;;;;;0.52;0.52;;;;;;;-143.85;100.00;70650.75;5118852;27;20110;-84
2021/12/19 06:26:59;;;;;;;0.30;0.30;;;;;;;-143.85;100.00;70650.75;5119497;27;20023;-83
2021/12/19 06:29:30;;;;;;;0.30;0.30;;;;;;;-143.85;100.00;70650.75;5118998;27;20027;-86
2021/12/19 06:31:56;;;;;;;0.30;0.30;;;;;;;-143.85;100.00;70650.75;5118798;27;20491;-85
2021/12/19 06:34:22;;;;;;;1.10;1.10;;;;;;;-143.85;100.00;70650.75;5118968;27;20027;-87
2021/12/19 06:36:48;;;;;;;0.30;0.30;;;;;;;-143.85;100.00;70650.75;5118530;27;20042;-85
2021/12/19 06:39:14;;;;;;;0.45;0.45;;;;;;;-143.85;100.00;70650.75;5119277;27;20030;-86
2021/12/19 06:41:39;;;;;;;0.30;0.30;;;;;;;-143.85;100.00;70650.75;5118819;27;20027;-86
2021/12/19 06:44:06;;;;;;;0.80;0.80;;;;;;;-143.85;100.00;70650.75;5119145;27;20047;-87
2021/12/19 06:46:32;;;;;;;0.88;0.88;;;;;;;-143.85;100.00;70650.75;5119930;27;20046;-86
2021/12/19 06:48:58;;;;;;;0.20;0.20;;;;;;;-143.85;100.00;70650.75;5120469;27;20027;-86
2021/12/19 06:51:24;;;;;;;0.30;0.30;;;;;;;-143.85;100.00;70650.75;5118658;27;20376;-87
2021/12/19 06:53:50;;;;;;;0.20;0.20;;;;;;;-143.85;100.00;70650.75;5120067;27;20026;-85
2021/12/19 06:56:16;;;;;;;0.30;0.30;;;;;;;-143.85;100.00;70650.75;5119954;27;20023;-87
2021/12/19 06:58:41;;;;;;;0.40;0.40;;;;;;;-143.85;100.00;70650.75;5121108;27;20031;-87
2021/12/19 07:01:07;;;;;;;0.30;0.30;;;;;;;-143.85;100.00;70650.75;5120225;27;20176;-86
2021/12/19 07:03:33;;;;;;;0.30;0.30;;;;;;;-143.85;100.00;70650.75;5119579;27;20035;-86
2021/12/19 07:05:59;;;;;;;0.55;0.55;;;;;;;-143.85;100.00;70650.75;5119186;27;20031;-86
2021/12/19 07:08:25;;;;;;;0.25;0.25;;;;;;;-143.85;100.00;70650.75;5118783;27;20026;-85
2021/12/19 07:10:51;;;;;;;0.20;0.20;;;;;;;-143.85;100.00;70650.75;5119045;27;20023;-86
2021/12/19 07:13:20;;;;;;;0.30;0.30;;;;;;;-143.85;100.00;70650.75;5119209;27;20103;-87
2021/12/19 07:15:50;;;;;;;0.25;0.25;;;;;;;-143.85;100.00;70650.75;5138328;27;20470;-86
2021/12/19 07:18:16;;;;;;;0.60;0.60;;;;;;;-143.85;100.00;70650.75;5118263;27;20030;-87
2021/12/19 07:20:43;;;;;;;0.68;0.68;;;;;;;-143.85;100.00;70650.75;5118034;27;20035;-86
2021/12/19 07:23:19;;;;;;;0.28;0.28;;;;;;;-143.85;100.00;70650.75;5118085;27;20062;-86
2021/12/19 07:25:45;;;;;;;0.30;0.30;;;;;;;-143.85;100.00;70650.75;5118509;27;20467;-86
2021/12/19 07:28:12;;;;;;;0.40;0.40;;;;;;;-143.85;100.00;70650.75;5117921;27;20031;-85
2021/12/19 07:30:38;;;;;;;1.52;1.42;;;;;;;-143.85;100.00;70650.75;5117937;27;20019;-87
2021/12/19 07:33:05;;;;;;;0.82;0.82;;;;;;;-143.85;100.00;70650.75;5118085;27;20038;-86
2021/12/19 07:35:37;;;;;;;2.58;2.40;;;;;;;-143.85;100.00;70650.75;5117640;27;20566;-86
2021/12/19 07:38:04;;;;;;;0.20;0.20;;;;;;;-143.85;100.00;70650.75;5118082;27;20035;-86
2021/12/19 07:40:36;;;;;;;0.52;0.52;;;;;;;-143.85;100.00;70650.75;5117795;27;20126;-85
2021/12/19 07:43:04;;;;;;;0.28;0.28;;;;;;;-143.85;100.00;70650.75;5119530;27;20035;-87
2021/12/19 07:45:32;;;;;;;0.30;0.30;;;;;;;-143.85;100.00;70650.75;5117349;27;20042;-87
2021/12/19 07:47:59;;;;;;;0.30;0.30;;;;;;;-143.85;100.00;70650.75;5150059;27;20118;-86
2021/12/19 07:50:26;;;;;;;1.40;1.33;;;;;;;-143.85;100.00;70650.75;5117799;27;20027;-86
2021/12/19 07:52:52;;;;;;;0.20;0.20;;;;;;;-143.85;100.00;70650.75;5119160;27;20028;-85
2021/12/19 07:55:18;;;;;;;0.20;0.20;;;;;;;-143.85;100.00;70650.75;5119193;27;20035;-84
2021/12/19 07:57:43;;;;;;;0.30;0.30;;;;;;;-143.85;100.00;70650.75;5118756;27;20034;-87
2021/12/19 08:00:11;;;;;;;0.52;0.52;;;;;;;-143.85;100.00;70650.75;5120825;27;20061;-83
2021/12/19 08:02:37;;;;;;;;;;;;;;;-143.85;100.00;70650.75;5135652;27;20020;-84
2021/12/19 08:05:03;;;;;;;0.30;0.30;;;;;;;-143.85;100.00;70650.75;5118314;27;19913;-86
2021/12/19 08:07:30;;;;;;;0.20;0.20;;;;;;;-143.85;100.00;70650.75;5112175;28;20042;-85
2021/12/19 08:12:32;;;;;;;0.30;0.30;;;;;;;-143.85;100.00;70650.75;5115057;28;20544;-83
2021/12/19 08:14:58;;;;;;;0.30;0.30;;;;;;;-143.85;100.00;70650.75;5096119;28;20027;-81
2021/12/19 08:17:23;;;;;;;0.28;0.28;;;;;;;-143.85;100.00;70650.75;5095535;28;20114;-78
2021/12/19 08:19:50;;;;;;;0.43;0.43;;;;;;;-143.85;100.00;70650.75;5095150;28;20034;-84
2021/12/19 08:22:15;;;;;;;0.40;0.40;;;;;;;-143.85;100.00;70650.75;5095537;28;20100;-83
2021/12/19 08:24:41;;;;;;;0.20;0.20;;;;;;;-143.85;100.00;70650.75;5095221;28;20069;-83
2021/12/19 08:27:37;;;;;;;1.65;1.52;;;;;;;-143.85;100.00;70650.75;5095508;28;20496;-82
2021/12/19 08:30:08;;;;;;;0.32;0.32;;;;;;;-143.85;100.00;70650.75;5058435;28;20032;-83
2021/12/19 08:32:34;;;;;;;1.52;0.88;;;;;;;-143.85;100.00;70650.75;5095262;28;20027;-84
2021/12/19 08:35:00;;;;;;;0.30;0.30;;;;;;;-143.85;100.00;70650.75;5095120;28;20035;-84
2021/12/19 08:37:26;;;;;;;0.47;0.47;;;;;;;-143.85;100.00;70650.75;5095206;28;20035;-84
2021/12/19 08:39:51;;;;;;;0.50;0.50;;;;;;;-143.85;100.00;70650.75;5095008;28;20027;-84
2021/12/19 08:42:17;;;;;;;0.80;0.77;;;;;;;-143.85;100.00;70650.75;5095052;28;20107;-75
2021/12/19 08:44:43;;;;;;;0.70;0.70;;;;;;;-143.85;100.00;70650.75;5095113;28;20407;-82
2021/12/19 08:47:11;;;;;;;0.20;0.20;;;;;;;-143.85;100.00;70650.75;5113669;28;20028;-82
2021/12/19 08:49:39;;;;;;;0.68;0.68;;;;;;;-143.85;100.00;70650.75;5095255;28;20031;-83
2021/12/19 08:52:06;;;;;;;0.30;0.30;;;;;;;-143.85;100.00;70650.75;5112711;28;20503;-85
2021/12/19 08:54:32;;;;;;;0.90;0.90;;;;;;;-143.85;100.00;70650.75;5094565;28;20388;-83
2021/12/19 08:56:57;;;;;;;0.25;0.25;;;;;;;-143.85;100.00;70650.75;5094788;28;20038;-76
2021/12/19 08:59:23;;;;;;;1.75;1.48;;;;;;;-143.85;100.00;70650.75;5095107;28;20054;-81
2021/12/19 09:01:49;;;;;;;0.20;0.20;;;;;;;-143.85;100.00;70650.75;5094995;28;20024;-83
2021/12/19 09:04:15;;;;;;;0.30;0.30;;;;;;;-143.85;100.00;70650.75;5094636;28;20024;-80
2021/12/19 09:06:41;;;;;;;0.68;0.68;;;;;;;-143.85;100.00;70650.75;5094700;28;20020;-83
2021/12/19 09:09:06;;;;;;;0.75;0.75;;;;;;;-143.85;100.00;70650.75;5095441;28;20079;-83
2021/12/19 09:11:33;;;;;;;0.30;0.30;;;;;;;-143.85;100.00;70650.75;5094603;28;20027;-83
2021/12/19 09:13:59;;;;;;;1.75;1.65;;;;;;;-143.85;100.00;70650.75;5098269;28;20396;-81
2021/12/19 09:16:25;;;;;;;0.52;0.52;;;;;;;-143.85;100.00;70650.75;5098961;28;20030;-80
2021/12/19 09:18:51;;;;;;;2.65;1.40;;;;;;;-143.85;100.00;70650.75;5116989;28;20110;-80
2021/12/19 09:21:17;;;;;;;0.50;0.50;;;;;;;-143.85;100.00;70650.75;5099327;28;20058;-79
2021/12/19 09:23:42;;;;;;;0.30;0.30;;;;;;;-143.85;100.00;70650.75;5098704;28;20516;-75
2021/12/19 09:26:08;;;;;;;0.50;0.50;;;;;;;-143.85;100.00;70650.75;5098485;28;20027;-78
2021/12/19 09:28:33;;;;;;;0.20;0.20;;;;;;;-143.85;100.00;70650.75;5098275;28;20062;-78
2021/12/19 09:30:59;;;;;;;2.55;1.35;;;;;;;-143.85;100.00;70650.75;5099145;28;20026;-80
2021/12/19 09:33:25;;;;;;;0.70;0.70;;;;;;;-143.85;100.00;70650.75;5098883;28;20030;-78
2021/12/19 09:35:51;;;;;;;0.20;0.20;;;;;;;-143.85;100.00;70650.75;5116694;28;20399;-78
2021/12/19 09:38:18;;;;;;;6.10;1.52;;;;;;;-143.85;100.00;70650.75;5098127;28;20032;-78
2021/12/19 09:40:45;;;;;;;0.35;0.35;;;;;;;-143.85;100.00;70650.75;5116336;28;20076;-77
2021/12/19 09:43:41;;;;;;;0.13;0.13;;;;;;;-143.85;100.00;70650.75;5098290;28;20032;-79
2021/12/19 09:46:10;;;;;;;1.25;1.25;;;;;;;-143.85;100.00;70650.75;5098248;28;20059;-77
2021/12/19 09:48:38;;;;;;;0.20;0.20;;;;;;;-143.85;100.00;70650.75;5098204;28;20411;-76
2021/12/19 09:51:03;;;;;;;;;;;;;;;-143.85;100.00;70650.75;5098535;28;20024;-77
2021/12/19 09:53:29;;;;;;;0.30;0.30;;;;;;;-143.85;100.00;70650.75;5098226;28;19918;-76
2021/12/19 09:55:54;;;;;;;0.40;0.40;;;;;;;-143.85;100.00;70650.75;5097896;28;20047;-78
2021/12/19 09:58:20;;;;;;;0.30;0.30;;;;;;;-143.85;100.00;70650.75;5098022;28;20114;-77
2021/12/19 10:00:45;;;;;;;0.75;0.75;;;;;;;-143.85;100.00;70650.75;5098227;28;20054;-76
2021/12/19 10:03:11;;;;;;;0.45;0.45;;;;;;;-143.85;100.00;70650.75;5098007;28;20122;-77
2021/12/19 10:05:37;;;;;;;0.68;0.68;;;;;;;-143.85;100.00;70650.75;5097742;28;20039;-76
2021/12/19 10:08:03;;;;;;;0.43;0.32;;;;;;;-143.85;100.00;70650.75;5097763;28;20075;-75
2021/12/19 10:10:55;;;;;;;0.28;0.28;;;;;;;-143.85;100.00;70650.75;5115947;28;20487;-79
2021/12/19 10:13:36;;;;;;;0.20;0.20;;;;;;;-143.85;100.00;70650.75;5097738;28;20027;-79
2021/12/19 10:16:24;;;;;;;0.32;0.32;;;;;;;-143.85;100.00;70650.75;5098352;28;20032;-77
2021/12/19 10:18:50;;;;;;;;;;;;;;;-143.85;100.00;70650.75;5098018;28;20023;-75
2021/12/19 10:21:19;;;;;;;0.20;0.20;;;;;;;-143.85;100.00;70650.75;5097580;28;19961;-77
2021/12/19 10:23:45;;;;;;;0.43;0.43;;;;;;;-143.85;100.00;70650.75;5096920;28;20118;-78
2021/12/19 10:26:12;;;;;;;0.40;0.40;;;;;;;-143.85;100.00;70650.75;5097108;28;20122;-77
2021/12/19 10:28:57;;;;;;;0.52;0.52;;;;;;;-143.85;100.00;70650.75;5097605;28;20031;-75
2021/12/19 10:31:25;;;;;;;0.65;0.65;;;;;;;-143.85;100.00;70650.75;5097506;28;20036;-76
2021/12/19 10:33:51;;;;;;;1.25;0.55;;;;;;;-143.85;100.00;70650.75;5097650;28;20032;-77
2021/12/19 10:36:18;;;;;;;0.20;0.20;;;;;;;-143.85;100.00;70650.75;5097321;28;20027;-77
2021/12/19 10:38:50;;;;;;;0.68;0.68;;;;;;;-143.85;100.00;70650.75;5097277;28;20024;-75
2021/12/19 10:41:32;;;;;;;0.20;0.20;;;;;;;-143.85;100.00;70650.75;5097306;28;20168;-77
2021/12/19 10:44:06;;;;;;;1.05;1.05;;;;;;;-143.85;100.00;70650.75;5097395;28;20419;-79
2021/12/19 10:46:37;;;;;;;0.30;0.30;;;;;;;-143.85;100.00;70650.75;5097032;28;20031;-79
2021/12/19 10:49:04;;;;;;;0.63;0.63;;;;;;;-143.85;100.00;70650.75;5097376;28;20031;-76
2021/12/19 10:51:36;;;;;;;1.05;0.70;;;;;;;-143.85;100.00;70650.75;5097183;28;20031;-76
2021/12/19 10:54:07;;;;;;;3.75;0.85;;;;;;;-143.85;100.00;70650.75;5097113;28;20176;-78
2021/12/19 10:56:37;;;;;;;0.30;0.30;;;;;;;-143.85;100.00;70650.75;5096745;28;20065;-76
2021/12/19 10:59:09;;;;;;;1.20;1.20;;;;;;;-143.85;100.00;70650.75;5096715;28;20077;-76
2021/12/19 11:01:38;;;;;;;0.70;0.70;;;;;;;-143.85;100.00;70650.75;5096552;28;20094;-76
2021/12/19 11:04:08;;;;;;;1.00;1.00;;;;;;;-143.85;100.00;70650.75;5096647;28;20027;-78
2021/12/19 11:06:43;;;;;;;0.20;0.20;;;;;;;-143.85;100.00;70650.75;5096628;28;20487;-76
2021/12/19 11:09:21;;;;;;;0.22;0.22;;;;;;;-143.85;100.00;70650.75;5096635;28;20027;-79
2021/12/19 11:12:13;;;;;;;0.28;0.28;;;;;;;-143.85;100.00;70650.75;5097138;28;20035;-78
2021/12/19 11:14:47;;;;;;;0.50;0.50;;;;;;;-143.85;100.00;70650.75;5096562;28;20034;-76
2021/12/19 11:17:23;;;;;;;1.65;0.90;;;;;;;-143.85;100.00;70650.75;5096578;28;20403;-75
2021/12/19 11:19:51;;;;;;;1.83;1.73;;;;;;;-143.85;100.00;70650.75;5096261;28;20024;-73
2021/12/19 11:22:25;;;;;;;0.95;0.95;;;;;;;-143.85;100.00;70650.75;5114347;28;20102;-76
2021/12/19 11:24:57;;;;;;;2.15;1.27;;;;;;;-143.85;100.00;70650.75;5096646;28;20032;-76
2021/12/19 11:27:23;;;;;;;1.50;1.40;;;;;;;-143.85;100.00;70650.75;5096149;28;20031;-77
2021/12/19 11:29:54;;;;;;;0.38;0.38;;;;;;;-143.85;100.00;70650.75;5114415;28;20036;-76
2021/12/19 11:32:24;;;;;;;0.32;0.32;;;;;;;-143.85;100.00;70650.75;5096047;28;20020;-76
2021/12/19 11:35:14;;;;;;;0.77;0.57;;;;;;;-143.85;100.00;70650.75;5114366;28;20034;-77
2021/12/19 11:38:08;;;;;;;0.57;0.57;;;;;;;-143.85;100.00;70650.75;5095952;28;20019;-75
2021/12/19 11:40:37;;;;;;;1.13;1.13;;;;;;;-143.85;100.00;70650.75;5093310;28;20492;-76
2021/12/19 11:43:08;;;;;;;1.98;1.17;;;;;;;-143.85;100.00;70650.75;5096407;28;20016;-74
2021/12/19 11:48:09;;;;;;;1.02;0.90;;;;;;;-143.85;100.00;70650.75;5114115;28;20024;-75
2021/12/19 11:50:45;;;;;;;1.02;1.00;;;;;;;-143.85;100.00;70650.75;5095987;28;20032;-74
2021/12/19 11:53:12;;;;;;;3.92;3.20;;;;;;;-143.85;100.00;70650.75;5095985;28;20051;-75
2021/12/19 11:55:39;;;;;;;1.25;1.25;;;;;;;-143.85;100.00;70650.75;5095769;28;20034;-74
2021/12/19 11:58:08;;;;;;;4.32;4.03;;;;;;;-143.85;100.00;70650.75;5095686;28;20028;-78
2021/12/19 12:00:37;;;;;;;2.70;0.82;;;;;;;-143.85;100.00;70650.75;5095800;28;20063;-78
2021/12/19 12:03:11;;;;;;;2.83;2.55;;;;;;;-143.85;100.00;70650.75;5095633;28;20475;-79
2021/12/19 12:05:40;;;;;;;1.77;1.27;;;;;;;-143.85;100.00;70650.75;5095586;28;20149;-77
2021/12/19 12:08:06;;;;;;;0.60;0.50;;;;;;;-143.85;100.00;70650.75;5095569;28;20024;-76
2021/12/19 12:10:47;;;;;;;1.67;1.08;;;;;;;-143.85;100.00;70650.75;5113468;28;20032;-74
2021/12/19 12:13:29;;;;;;;1.25;1.23;;;;;;;-143.85;100.00;70650.75;5096218;28;20414;-75
2021/12/19 12:16:06;;;;;;;0.82;0.57;;;;;;;-143.85;100.00;70650.75;5095442;28;20031;-77
2021/12/19 12:18:37;;;;;;;0.17;0.17;;;;;;;-143.85;100.00;70650.75;5095103;28;20066;-75
2021/12/19 12:21:18;;;;;;;0.95;0.95;;;;;;;-143.85;100.00;70650.75;5095567;28;20023;-73
2021/12/19 12:23:58;;;;;;;2.40;0.63;;;;;;;-143.85;100.00;70650.75;5095228;28;20032;-77
2021/12/19 12:26:30;;;;;;;0.40;0.40;;;;;;;-143.85;100.00;70650.75;5095302;28;20028;-79